Airfield :
LOGIN :

Register | Disclaimer

   EN    FR    IT 

 










Legend :    VFR   Marginal VFR   IFR   Intensive IFR   Very Intensive IFR
Visi :
Ceiling :
>= 8 km
>= 3000ft
5 to 8 km
1000 to 3000 ft
1500m to 5 km
500 to 1000 ft
800 to 1500m
200 to 500 ft
< 800m
< 200 ft
Symbols :   Thunderstorms  Fog  Heavy snow  Heavy precipitations  Wind > 20 kt
SIGMETs :     Misc.  Thunderstorms  Icing  Turbulence  Mountain Waves  Volcanic Ashes






- Airport Elevation : 436 ft
- IATA code : BTS


LZIB - Bratislava

CURRENT METAR :
  • 162330Z 08006KT 4000 BR FEW003 BKN004 OVC025 11/10 Q1015

EXPIRED METARs :
  • 162300Z 06006KT 4000 -RA BR BKN003 BKN009 10/10 Q1015
  • 162230Z 07006KT 3000 -RA BR BKN003 BKN006 10/10 Q1016
  • 162200Z 06005KT 3000 -RA BR BKN002 OVC035 10/10 Q1016
  • 162153Z 06005KT 3000 -RA BR FEW002 BKN003 10/10 Q1016
  • 162130Z 04005KT 6000 -RA FEW010 SCT024 BKN040 10/09 Q1016
  • 162100Z 07004KT 7000 -RA FEW010 BKN030 BKN063 10/09 Q1016

TAF AMD TAF LZIB
Valid from the 16 at 23:00 until the 17 at 18:00 UTC


162319Z 1623/1718 15008KT 3000 BR BKN003 BKN009
TEMPO 1623/1708 1300 -RA BKN005 OVC014
PROB40 1702/1708 0200 FG OVC001
BECMG 1708/1710 11012KT SCT035 SCT100
TEMPO 1710/1716 12015G25KT 6000 SCT035 SCT100



MET'MAP, your aeronautical weather chart ! - Copyright ORBIFLY December 2007 - Disclaimer

ORBIFLY MET'MAP TEAM :

Programming & Development : Alexandra Zaïnal
Concept & Development : Baudouin d'Aumeries
Co-Development & Prog : Marc-Olivier Méhu
Technical & hardware support : Manuel Goepfert

Contact : metmap@orbifly.com




SOURCES & CREDITS :

   NOAA